Time;durP1;ratioP1;P1;durP2;ratioP2;P2;SDS_P1;SDS_P2;PMS_P1;PMS_P2;Temp;Humidity;BMP_temperature;BMP_pressure;BME280_temperature;BME280_humidity;BME280_pressure;Samples;Min_cycle;Max_cycle;Signal;HPM_P1;HPM_P2
2022/05/20 00:00:33;;;;;;;2.85;2.40;;;20.20;99.90;;;;;;7392161;19;20138;-75
2022/05/20 00:02:59;;;;;;;4.05;2.33;;;20.40;99.90;;;;;;7396554;19;20198;-76
2022/05/20 00:05:26;;;;;;;3.13;2.20;;;20.40;99.90;;;;;;7393740;19;20134;-80
2022/05/20 00:07:53;;;;;;;3.10;2.38;;;20.20;99.90;;;;;;7391835;19;20153;-75
2022/05/20 00:10:18;;;;;;;3.63;2.47;;;20.20;99.90;;;;;;7392821;19;20139;-81
2022/05/20 00:12:46;;;;;;;3.28;2.50;;;20.50;99.90;;;;;;7392223;19;20198;-80
2022/05/20 00:15:20;;;;;;;4.72;2.63;;;20.20;99.90;;;;;;7391916;19;20318;-79
2022/05/20 00:17:45;;;;;;;4.63;2.60;;;20.10;99.90;;;;;;7390099;19;20161;-75
2022/05/20 00:20:13;;;;;;;3.42;2.42;;;20.20;99.90;;;;;;7389796;19;20479;-74
2022/05/20 00:22:39;;;;;;;3.60;2.95;;;20.30;99.90;;;;;;7391243;19;20570;-74
2022/05/20 00:27:51;;;;;;;3.58;2.88;;;20.20;99.90;;;;;;7389821;19;20130;-75
2022/05/20 00:30:17;;;;;;;3.75;2.30;;;20.00;99.90;;;;;;7393660;19;20145;-76
2022/05/20 00:32:43;;;;;;;5.80;2.97;;;19.80;99.90;;;;;;7389680;19;20148;-74
2022/05/20 00:35:10;;;;;;;3.50;2.53;;;19.90;99.90;;;;;;7389866;19;20142;-80
2022/05/20 00:37:37;;;;;;;3.10;2.58;;;19.80;99.90;;;;;;7387973;19;20146;-76
2022/05/20 00:40:05;;;;;;;4.60;3.00;;;19.80;99.90;;;;;;7389279;19;20479;-80
2022/05/20 00:42:33;;;;;;;3.13;2.60;;;19.60;99.90;;;;;;7390151;19;20143;-80
2022/05/20 00:44:59;;;;;;;3.22;2.70;;;19.80;99.90;;;;;;7396147;19;20146;-81
2022/05/20 00:47:25;;;;;;;3.13;2.55;;;20.00;99.90;;;;;;7390615;19;20166;-81
2022/05/20 00:49:54;;;;;;;4.18;2.90;;;19.90;99.90;;;;;;7392567;19;20134;-75
2022/05/20 00:52:24;;;;;;;4.32;2.95;;;19.80;99.90;;;;;;7388270;19;20130;-74
2022/05/20 00:54:55;;;;;;;6.88;2.92;;;19.90;99.90;;;;;;7389561;19;20153;-74
2022/05/20 00:57:29;;;;;;;3.20;2.72;;;19.70;99.90;;;;;;7390283;19;20138;-75
2022/05/20 01:00:10;;;;;;;3.67;2.78;;;19.60;99.90;;;;;;7387856;19;20139;-74
2022/05/20 01:02:37;;;;;;;3.72;3.00;;;19.60;99.90;;;;;;7389001;19;20142;-82
2022/05/20 01:05:07;;;;;;;5.30;2.92;;;19.80;99.90;;;;;;7389471;19;20218;-82
2022/05/20 01:07:38;;;;;;;3.85;3.05;;;19.80;99.90;;;;;;7389391;19;20486;-81
2022/05/20 01:10:04;;;;;;;3.03;2.72;;;19.80;99.90;;;;;;7400377;19;20130;-80
2022/05/20 01:12:30;;;;;;;3.33;2.88;;;19.80;99.90;;;;;;7400680;19;20144;-82
2022/05/20 01:14:56;;;;;;;4.90;3.10;;;20.00;99.90;;;;;;7397218;19;20134;-75
2022/05/20 01:17:23;;;;;;;3.65;2.60;;;20.00;99.90;;;;;;7395775;19;20122;-81
2022/05/20 01:19:53;;;;;;;3.38;2.40;;;20.10;99.90;;;;;;7396351;19;20489;-80
2022/05/20 01:22:28;;;;;;;3.60;2.72;;;20.10;99.90;;;;;;7396336;19;20188;-77
2022/05/20 01:24:54;;;;;;;4.93;2.70;;;20.10;99.90;;;;;;7400617;19;20217;-76
2022/05/20 01:27:20;;;;;;;4.95;2.85;;;20.00;99.90;;;;;;7397014;19;20239;-81
2022/05/20 01:29:45;;;;;;;3.75;2.85;;;19.90;99.90;;;;;;7396116;19;20146;-76
2022/05/20 01:32:11;;;;;;;4.15;2.63;;;19.60;99.90;;;;;;7395621;19;20146;-75
2022/05/20 01:34:37;;;;;;;4.50;3.22;;;19.60;99.90;;;;;;7397588;19;20145;-75
2022/05/20 01:37:03;;;;;;;3.20;2.38;;;19.90;99.90;;;;;;7400368;19;20127;-81
2022/05/20 01:39:28;;;;;;;5.50;3.05;;;20.00;99.90;;;;;;7396611;19;20126;-80
2022/05/20 01:42:05;;;;;;;3.80;2.80;;;20.10;99.90;;;;;;7398412;19;20137;-81
2022/05/20 01:44:37;;;;;;;4.22;2.80;;;20.30;99.90;;;;;;7398063;19;20154;-75
2022/05/20 01:47:09;;;;;;;5.53;3.03;;;20.30;99.90;;;;;;7397480;19;20138;-80
2022/05/20 01:49:51;;;;;;;3.58;2.97;;;20.50;99.90;;;;;;7395879;19;20129;-81
2022/05/20 01:52:33;;;;;;;4.38;2.65;;;20.60;99.90;;;;;;7395244;19;20147;-80
2022/05/20 01:55:06;;;;;;;4.57;2.80;;;20.30;99.90;;;;;;7396833;19;20479;-81
2022/05/20 01:57:48;;;;;;;3.65;2.53;;;20.00;99.90;;;;;;7394525;19;20628;-81
2022/05/20 02:00:21;;;;;;;3.28;2.45;;;19.80;99.90;;;;;;7401413;19;20200;-79
2022/05/20 02:03:01;;;;;;;3.55;2.63;;;20.00;99.90;;;;;;7397710;19;20143;-76
2022/05/20 02:05:37;;;;;;;3.42;3.13;;;19.80;99.90;;;;;;7398683;19;20159;-76
2022/05/20 02:08:12;;;;;;;2.55;2.35;;;19.90;99.90;;;;;;7394700;19;20629;-80
2022/05/20 02:10:44;;;;;;;4.45;3.20;;;19.90;99.90;;;;;;7397817;19;20130;-76
2022/05/20 02:13:13;;;;;;;3.85;2.78;;;19.80;99.90;;;;;;7397622;19;20135;-76
2022/05/20 02:15:54;;;;;;;8.25;3.25;;;20.00;99.90;;;;;;7399439;19;20142;-80
2022/05/20 02:18:27;;;;;;;4.90;2.95;;;20.30;99.90;;;;;;7397553;19;20594;-76
2022/05/20 02:21:01;;;;;;;4.32;2.83;;;20.50;99.90;;;;;;7396743;19;20146;-81
2022/05/20 02:23:34;;;;;;;4.38;3.30;;;20.20;99.90;;;;;;7397638;19;20138;-82
2022/05/20 02:26:08;;;;;;;6.32;3.05;;;20.20;99.90;;;;;;7399325;19;20131;-76
2022/05/20 02:28:38;;;;;;;4.07;2.92;;;20.30;99.90;;;;;;7392849;19;20130;-81
2022/05/20 02:31:09;;;;;;;4.10;2.72;;;20.40;99.90;;;;;;7394771;19;20138;-80
2022/05/20 02:33:35;;;;;;;3.47;2.78;;;20.20;99.90;;;;;;7394893;19;20134;-76
2022/05/20 02:36:28;;;;;;;5.55;3.35;;;20.10;99.90;;;;;;7392000;19;20197;-76
2022/05/20 02:38:54;;;;;;;4.38;3.00;;;20.30;99.90;;;;;;7394340;19;20535;-81
2022/05/20 02:41:20;;;;;;;2.85;2.65;;;20.30;99.90;;;;;;7394036;19;20138;-76
2022/05/20 02:43:45;;;;;;;5.20;2.97;;;20.00;99.90;;;;;;7397750;19;20158;-81
2022/05/20 02:46:12;;;;;;;4.25;3.20;;;20.10;99.90;;;;;;7395459;19;20183;-76
2022/05/20 02:48:39;;;;;;;3.97;3.30;;;20.10;99.90;;;;;;7393756;19;20131;-76
2022/05/20 02:51:04;;;;;;;3.50;3.20;;;19.90;99.90;;;;;;7394304;19;20137;-78
2022/05/20 02:53:30;;;;;;;6.60;3.58;;;19.90;99.90;;;;;;7392529;19;20201;-81
2022/05/20 02:55:56;;;;;;;5.50;3.22;;;19.70;99.90;;;;;;7393871;19;20159;-79
2022/05/20 03:04:11;;;;;;;4.82;3.75;;;19.70;99.90;;;;;;7390745;19;20594;-79
2022/05/20 03:06:54;;;;;;;5.20;3.15;;;19.90;99.90;;;;;;7397989;19;20149;-81
2022/05/20 03:09:23;;;;;;;6.57;3.13;;;19.60;99.90;;;;;;7394095;19;20484;-79
2022/05/20 03:11:49;;;;;;;4.85;3.15;;;19.60;99.90;;;;;;7395856;19;20122;-82
2022/05/20 03:14:18;;;;;;;4.93;3.33;;;19.70;99.90;;;;;;7394363;19;20147;-80
2022/05/20 03:16:44;;;;;;;4.75;3.08;;;19.70;99.90;;;;;;7392688;19;20479;-80
2022/05/20 03:19:10;;;;;;;5.93;3.55;;;19.70;99.90;;;;;;7393525;19;20127;-77
2022/05/20 03:21:37;;;;;;;5.28;3.10;;;19.60;99.90;;;;;;7391426;19;20127;-76
2022/05/20 03:24:06;;;;;;;4.13;3.22;;;19.40;99.90;;;;;;7389523;19;20141;-82
2022/05/20 03:26:33;;;;;;;5.63;3.22;;;19.30;99.90;;;;;;7397394;19;20127;-77
2022/05/20 03:28:59;;;;;;;6.63;3.75;;;19.30;99.90;;;;;;7405596;19;20586;-75
2022/05/20 03:31:29;;;;;;;6.22;3.65;;;19.30;99.90;;;;;;7392616;19;20154;-81
2022/05/20 03:33:55;;;;;;;3.65;3.28;;;19.30;99.90;;;;;;7390382;19;20161;-75
2022/05/20 03:36:21;;;;;;;5.68;3.42;;;19.60;99.90;;;;;;7390401;19;20145;-76
2022/05/20 03:38:47;;;;;;;5.30;3.67;;;19.90;99.90;;;;;;7390411;19;20131;-80
2022/05/20 03:41:13;;;;;;;4.60;3.45;;;20.00;99.90;;;;;;7391321;19;20190;-80
2022/05/20 03:43:40;;;;;;;4.13;3.63;;;19.90;99.90;;;;;;7391165;19;20139;-81
2022/05/20 03:46:06;;;;;;;3.60;3.20;;;19.70;99.90;;;;;;7392411;19;20747;-80
2022/05/20 03:48:32;;;;;;;5.38;3.15;;;20.00;99.90;;;;;;7393022;19;20493;-81
2022/05/20 03:51:09;;;;;;;5.45;3.53;;;20.10;99.90;;;;;;7396208;19;20119;-77
2022/05/20 03:53:35;;;;;;;7.07;3.50;;;20.10;99.90;;;;;;7390904;19;20834;-80
2022/05/20 03:56:00;;;;;;;5.35;3.35;;;20.20;99.90;;;;;;7391805;19;20155;-76
2022/05/20 03:58:27;;;;;;;6.57;3.60;;;20.30;99.90;;;;;;7389809;19;20587;-77
2022/05/20 04:03:41;;;;;;;4.93;3.40;;;20.30;99.90;;;;;;7388640;19;20480;-79
2022/05/20 04:06:07;;;;;;;4.55;3.50;;;20.50;99.90;;;;;;7390189;19;20126;-76
2022/05/20 04:08:33;;;;;;;4.10;3.33;;;20.40;99.90;;;;;;7390138;19;20134;-81
2022/05/20 04:10:59;;;;;;;4.72;3.42;;;20.40;99.90;;;;;;7397502;19;20630;-76
2022/05/20 04:13:24;;;;;;;4.57;3.65;;;20.50;99.90;;;;;;7396002;19;20243;-79
2022/05/20 04:15:51;;;;;;;7.10;3.67;;;20.50;99.90;;;;;;7393839;19;20636;-79
2022/05/20 04:18:17;;;;;;;5.03;3.53;;;20.60;99.90;;;;;;7388668;19;20127;-76
2022/05/20 04:20:43;;;;;;;4.85;3.67;;;20.10;99.90;;;;;;7389365;19;20169;-76
2022/05/20 04:23:09;;;;;;;6.30;4.05;;;20.30;99.90;;;;;;7389694;19;20143;-77
2022/05/20 04:25:35;;;;;;;5.82;4.30;;;20.40;99.90;;;;;;7389526;19;20138;-80
2022/05/20 04:28:01;;;;;;;4.50;3.38;;;20.60;99.90;;;;;;7390554;19;20261;-77
2022/05/20 04:30:26;;;;;;;5.03;3.40;;;20.40;99.90;;;;;;7390581;19;20187;-76
2022/05/20 04:32:52;;;;;;;5.82;3.33;;;20.10;99.90;;;;;;7393571;19;20561;-75
2022/05/20 04:35:18;;;;;;;5.00;2.83;;;20.00;99.90;;;;;;7395057;19;20572;-75
2022/05/20 04:37:44;;;;;;;4.00;3.40;;;20.00;99.90;;;;;;7388321;19;20131;-80
2022/05/20 04:40:10;;;;;;;3.78;3.40;;;20.00;99.90;;;;;;7390919;19;20131;-79
2022/05/20 04:48:06;;;;;;;4.15;3.75;;;20.60;99.90;;;;;;7387972;19;20131;-78
2022/05/20 04:50:32;;;;;;;5.15;3.33;;;20.80;99.90;;;;;;7388796;19;20161;-76
2022/05/20 04:52:58;;;;;;;4.38;3.22;;;20.50;99.90;;;;;;7389949;19;20137;-81
2022/05/20 04:55:23;;;;;;;5.47;3.90;;;20.40;99.90;;;;;;7395711;19;20131;-79
2022/05/20 04:57:52;;;;;;;4.30;3.47;;;20.50;99.90;;;;;;7388231;19;20214;-80
2022/05/20 05:00:24;;;;;;;5.03;3.80;;;20.40;99.90;;;;;;7392924;19;20186;-80
2022/05/20 05:02:52;;;;;;;7.25;4.00;;;20.60;99.90;;;;;;7387872;19;20137;-77
2022/05/20 05:05:20;;;;;;;5.30;3.40;;;20.70;99.90;;;;;;7390584;19;20138;-76
2022/05/20 05:07:49;;;;;;;4.53;3.85;;;20.80;99.90;;;;;;7388316;19;20159;-72
2022/05/20 05:10:17;;;;;;;6.60;4.05;;;20.80;99.90;;;;;;7390538;19;20130;-71
2022/05/20 05:12:43;;;;;;;5.45;3.78;;;20.60;99.90;;;;;;7390268;19;20154;-77
2022/05/20 05:15:11;;;;;;;5.63;3.67;;;20.50;99.90;;;;;;7391116;19;20221;-77
2022/05/20 05:20:23;;;;;;;4.70;3.25;;;20.20;99.90;;;;;;7389834;19;20149;-72
2022/05/20 05:22:51;;;;;;;4.57;3.22;;;20.40;99.90;;;;;;7385659;19;20600;-72
2022/05/20 05:25:20;;;;;;;7.45;3.67;;;20.50;99.90;;;;;;7388471;19;20210;-77
2022/05/20 05:27:46;;;;;;;9.43;3.92;;;20.70;99.90;;;;;;7390954;19;20155;-74
2022/05/20 05:30:13;;;;;;;4.82;3.45;;;20.50;99.90;;;;;;7385389;19;20119;-72
2022/05/20 05:32:39;;;;;;;3.00;2.70;;;20.40;99.90;;;;;;7390497;19;20672;-75
2022/05/20 05:35:08;;;;;;;3.25;2.95;;;20.30;99.90;;;;;;7388455;19;20435;-75
2022/05/20 05:37:35;;;;;;;3.63;3.05;;;20.20;99.90;;;;;;7391517;19;20146;-79
2022/05/20 05:40:01;;;;;;;5.43;3.30;;;20.00;99.90;;;;;;7389715;19;20134;-78
2022/05/20 05:42:29;;;;;;;3.95;3.03;;;20.20;99.90;;;;;;7393614;19;20264;-76
2022/05/20 05:44:55;;;;;;;6.43;3.10;;;20.30;99.90;;;;;;7387405;19;20138;-78
2022/05/20 05:47:21;;;;;;;5.75;3.05;;;20.20;99.90;;;;;;7386590;19;20488;-76
2022/05/20 05:49:47;;;;;;;4.93;3.22;;;20.40;99.90;;;;;;7389396;19;20148;-75
2022/05/20 05:52:13;;;;;;;4.35;3.10;;;20.60;99.90;;;;;;7388462;19;20127;-77
2022/05/20 05:54:39;;;;;;;3.83;3.42;;;20.90;99.90;;;;;;7388685;19;20582;-76
2022/05/20 05:57:06;;;;;;;5.22;2.97;;;21.10;99.90;;;;;;7395593;19;20831;-77
2022/05/20 05:59:32;;;;;;;3.83;3.08;;;21.30;99.90;;;;;;7395589;19;20126;-75
2022/05/20 06:01:59;;;;;;;3.38;2.88;;;21.30;99.90;;;;;;7395885;19;20152;-78
2022/05/20 06:04:26;;;;;;;3.15;2.85;;;21.40;99.90;;;;;;7401806;19;20135;-77
2022/05/20 06:06:53;;;;;;;5.10;2.72;;;21.60;99.90;;;;;;7395026;19;20130;-77
2022/05/20 06:09:19;;;;;;;4.75;2.72;;;21.70;99.90;;;;;;7394416;19;20130;-77
2022/05/20 06:11:45;;;;;;;4.63;2.60;;;21.90;99.90;;;;;;7397586;19;20538;-74
2022/05/20 06:14:11;;;;;;;2.90;2.58;;;21.80;99.90;;;;;;7396475;19;20123;-75
2022/05/20 06:16:38;;;;;;;4.05;3.00;;;21.90;99.90;;;;;;7394677;19;20130;-74
2022/05/20 06:19:04;;;;;;;5.22;4.63;;;22.20;99.90;;;;;;7393516;19;20615;-75
2022/05/20 06:21:30;;;;;;;4.25;2.70;;;23.20;99.90;;;;;;7395576;19;20130;-76
2022/05/20 06:23:56;;;;;;;5.82;3.33;;;23.90;99.90;;;;;;7392557;19;20491;-74
2022/05/20 06:26:22;;;;;;;4.18;3.72;;;24.90;99.90;;;;;;7393522;19;20138;-75
2022/05/20 06:28:49;;;;;;;5.70;3.65;;;25.70;99.90;;;;;;7395935;19;20141;-77
2022/05/20 06:31:15;;;;;;;4.90;3.80;;;26.30;99.90;;;;;;7393040;19;20202;-76
2022/05/20 06:33:40;;;;;;;3.83;3.38;;;26.80;99.90;;;;;;7392196;19;20520;-74
2022/05/20 06:41:35;;;;;;;8.18;3.60;;;27.40;99.90;;;;;;7392645;19;20126;-75
2022/05/20 06:44:02;;;;;;;7.70;3.72;;;27.10;99.90;;;;;;7390230;19;20545;-75
2022/05/20 06:46:27;;;;;;;5.53;3.28;;;27.00;99.90;;;;;;7392855;19;20190;-74
2022/05/20 06:48:55;;;;;;;5.93;3.33;;;27.30;99.90;;;;;;7392206;19;20148;-78
2022/05/20 06:51:28;;;;;;;3.70;3.20;;;27.30;99.90;;;;;;7392669;19;20162;-75
2022/05/20 06:53:57;;;;;;;5.93;3.08;;;27.40;99.90;;;;;;7397717;19;20143;-75
2022/05/20 06:56:24;;;;;;;4.15;2.60;;;27.40;99.90;;;;;;7397879;19;20478;-74
2022/05/20 06:58:51;;;;;;;2.53;2.30;;;27.50;99.90;;;;;;7392330;19;20130;-76
2022/05/20 07:01:18;;;;;;;5.07;2.83;;;27.40;99.90;;;;;;7393769;19;20541;-74
2022/05/20 07:03:45;;;;;;;6.20;3.30;;;28.10;99.90;;;;;;7389394;19;20165;-74
2022/05/20 07:06:14;;;;;;;4.25;2.85;;;28.40;99.90;;;;;;7389120;19;20171;-76
2022/05/20 07:08:43;;;;;;;6.20;2.58;;;28.30;99.90;;;;;;7390408;19;20765;-76
2022/05/20 07:11:11;;;;;;;4.93;3.00;;;28.60;99.90;;;;;;7393162;19;20143;-76
2022/05/20 07:13:38;;;;;;;5.35;2.78;;;28.80;99.90;;;;;;7391157;19;20139;-76
2022/05/20 07:16:06;;;;;;;5.43;2.30;;;29.00;99.90;;;;;;7395297;19;20146;-76
2022/05/20 07:18:34;;;;;;;4.65;3.38;;;28.90;99.90;;;;;;7392174;19;20615;-76
2022/05/20 07:21:01;;;;;;;3.20;2.90;;;29.30;99.90;;;;;;7394119;19;20138;-78
2022/05/20 07:23:29;;;;;;;3.70;2.83;;;29.50;99.90;;;;;;7389320;19;20170;-74
2022/05/20 07:25:57;;;;;;;4.65;3.10;;;29.50;99.90;;;;;;7390030;19;20147;-73
2022/05/20 07:28:24;;;;;;;3.60;3.22;;;29.40;99.90;;;;;;7389781;19;20143;-75
2022/05/20 07:30:50;;;;;;;3.30;2.40;;;29.50;99.90;;;;;;7392112;19;20533;-75
2022/05/20 07:33:17;;;;;;;2.88;2.33;;;29.70;99.90;;;;;;7390361;19;20448;-74
2022/05/20 07:35:43;;;;;;;3.72;2.63;;;29.90;99.90;;;;;;7390312;19;20689;-77
2022/05/20 07:38:09;;;;;;;7.68;6.60;;;30.00;99.90;;;;;;7388831;19;20158;-76
2022/05/20 07:40:35;;;;;;;4.85;2.85;;;29.90;99.60;;;;;;7390422;19;20205;-75
2022/05/20 07:43:02;;;;;;;7.97;5.22;;;30.20;99.60;;;;;;7392844;19;20141;-74
2022/05/20 07:45:28;;;;;;;4.72;3.70;;;30.70;99.00;;;;;;7392096;19;20138;-74
2022/05/20 07:47:54;;;;;;;2.65;2.28;;;30.90;98.50;;;;;;7391469;19;20127;-75
2022/05/20 07:50:21;;;;;;;2.78;2.55;;;30.90;98.20;;;;;;7389668;19;20594;-76
2022/05/20 07:55:42;;;;;;;2.45;2.03;;;31.40;96.90;;;;;;7389653;19;20170;-75
2022/05/20 07:58:11;;;;;;;2.20;2.00;;;31.00;97.00;;;;;;7388680;19;20199;-75
2022/05/20 08:00:38;;;;;;;2.40;2.15;;;31.50;97.40;;;;;;7390019;19;20147;-73
2022/05/20 08:03:04;;;;;;;3.30;2.50;;;31.60;96.20;;;;;;7388492;19;20217;-75
2022/05/20 08:05:33;;;;;;;5.28;1.88;;;31.40;96.50;;;;;;7390183;19;20165;-74
2022/05/20 08:08:02;;;;;;;2.78;2.50;;;31.80;96.80;;;;;;7398908;19;20212;-73
2022/05/20 08:10:33;;;;;;;4.60;2.20;;;32.10;96.60;;;;;;7391942;19;20143;-74
2022/05/20 08:13:00;;;;;;;4.05;2.53;;;32.30;96.80;;;;;;7389248;19;20130;-74
2022/05/20 08:15:27;;;;;;;4.97;3.33;;;32.60;96.40;;;;;;7393872;19;20180;-76
2022/05/20 08:17:52;;;;;;;2.75;1.95;;;32.60;94.80;;;;;;7393701;19;20614;-73
2022/05/20 08:20:30;;;;;;;2.38;2.10;;;32.10;94.70;;;;;;7388584;19;20150;-74
2022/05/20 08:22:57;;;;;;;4.45;3.42;;;32.40;95.50;;;;;;7389089;19;20813;-74
2022/05/20 08:25:24;;;;;;;3.90;2.63;;;32.50;94.60;;;;;;7388683;19;20161;-74
2022/05/20 08:27:51;;;;;;;4.45;2.90;;;32.60;94.00;;;;;;7387949;19;20235;-76
2022/05/20 08:30:23;;;;;;;3.22;2.80;;;32.60;93.20;;;;;;7389391;19;20151;-75
2022/05/20 08:32:49;;;;;;;2.67;2.00;;;32.30;93.70;;;;;;7398397;19;20167;-76
2022/05/20 08:35:15;;;;;;;3.70;2.50;;;32.50;93.50;;;;;;7392110;19;20571;-74
2022/05/20 08:37:43;;;;;;;5.55;2.30;;;32.40;93.70;;;;;;7389109;19;20150;-75
2022/05/20 08:40:23;;;;;;;3.95;2.50;;;32.50;93.10;;;;;;7390409;19;20223;-75
2022/05/20 08:42:51;;;;;;;4.88;2.65;;;32.70;93.30;;;;;;7387476;19;20154;-75
2022/05/20 08:45:20;;;;;;;2.88;2.20;;;32.50;93.10;;;;;;7390549;19;20207;-72
2022/05/20 08:47:49;;;;;;;4.25;2.53;;;32.30;92.90;;;;;;7387081;19;20197;-74
2022/05/20 08:50:26;;;;;;;2.85;2.40;;;32.00;93.20;;;;;;7388323;19;20134;-75
2022/05/20 08:52:58;;;;;;;2.72;2.20;;;32.00;93.50;;;;;;7387983;19;20158;-75
2022/05/20 08:55:24;;;;;;;6.00;2.22;;;31.90;93.30;;;;;;7390220;19;20271;-75
2022/05/20 08:58:02;;;;;;;3.00;2.47;;;31.90;93.10;;;;;;7389520;19;20254;-72
2022/05/20 09:00:28;;;;;;;3.05;2.30;;;31.80;93.50;;;;;;7388847;19;20541;-75
2022/05/20 09:02:55;;;;;;;2.92;2.00;;;31.80;93.70;;;;;;7385725;19;20214;-76
2022/05/20 09:05:28;;;;;;;3.17;2.30;;;31.90;94.50;;;;;;7389537;19;20202;-75
2022/05/20 09:08:04;;;;;;;4.30;2.92;;;31.80;94.20;;;;;;7388393;19;20137;-74
2022/05/20 09:10:37;;;;;;;3.67;2.38;;;31.70;94.40;;;;;;7387186;19;20575;-75
2022/05/20 09:16:21;;;;;;;4.70;3.20;;;31.50;92.90;;;;;;7390199;19;20154;-74
2022/05/20 09:18:49;;;;;;;3.53;2.20;;;31.50;92.50;;;;;;7386446;19;20198;-75
2022/05/20 09:21:32;;;;;;;3.65;2.90;;;31.50;91.60;;;;;;7389056;19;20521;-73
2022/05/20 09:24:03;;;;;;;5.07;2.30;;;31.70;91.80;;;;;;7386209;19;20164;-75
2022/05/20 09:26:45;;;;;;;2.47;2.00;;;31.70;91.70;;;;;;7386126;19;20202;-75
2022/05/20 09:29:26;;;;;;;3.85;2.13;;;31.70;91.70;;;;;;7388573;19;20303;-74
2022/05/20 09:32:00;;;;;;;4.43;2.35;;;31.80;91.80;;;;;;7396029;19;20134;-74
2022/05/20 09:34:26;;;;;;;4.78;2.10;;;31.60;92.40;;;;;;7395472;19;20482;-76
2022/05/20 09:37:00;;;;;;;3.20;2.00;;;31.50;92.60;;;;;;7395233;19;20135;-74
2022/05/20 09:39:47;;;;;;;3.05;2.20;;;31.40;92.80;;;;;;7398269;19;20506;-74
2022/05/20 09:42:23;;;;;;;3.88;2.45;;;31.20;92.30;;;;;;7394495;19;20155;-74
2022/05/20 09:44:53;;;;;;;3.80;2.28;;;31.00;92.40;;;;;;7394387;19;20130;-74
2022/05/20 09:47:33;;;;;;;3.55;2.00;;;31.10;92.80;;;;;;7392988;19;20131;-74
2022/05/20 09:50:16;;;;;;;4.03;2.97;;;31.00;92.00;;;;;;7395076;19;20130;-74
2022/05/20 09:52:53;;;;;;;4.13;3.17;;;31.20;92.90;;;;;;7393454;19;20135;-75
2022/05/20 09:55:40;;;;;;;4.40;2.60;;;31.20;92.40;;;;;;7394757;19;20130;-74
2022/05/20 09:58:27;;;;;;;5.57;3.10;;;31.30;91.90;;;;;;7394433;19;20138;-73
2022/05/20 10:01:11;;;;;;;3.35;2.47;;;31.20;91.70;;;;;;7396302;19;20135;-73
2022/05/20 10:03:46;;;;;;;2.83;2.45;;;31.10;91.90;;;;;;7394713;19;20484;-74
2022/05/20 10:06:27;;;;;;;6.30;2.70;;;31.00;91.60;;;;;;7393720;19;20155;-73
2022/05/20 10:09:21;;;;;;;4.68;2.40;;;30.70;92.40;;;;;;7395183;19;20626;-75
2022/05/20 10:12:06;;;;;;;2.67;2.47;;;30.70;92.20;;;;;;7394966;19;20494;-74
2022/05/20 10:14:52;;;;;;;5.45;4.38;;;30.60;92.60;;;;;;7394480;19;20150;-75
2022/05/20 10:17:43;;;;;;;4.82;2.63;;;30.60;92.80;;;;;;7396232;19;20209;-74
2022/05/20 10:20:31;;;;;;;3.20;2.90;;;30.60;92.20;;;;;;7393246;19;20485;-74
2022/05/20 10:23:03;;;;;;;8.10;5.38;;;30.60;92.80;;;;;;7392891;19;20166;-73
2022/05/20 10:25:49;;;;;;;5.35;3.33;;;30.60;92.90;;;;;;7398590;19;20134;-75
2022/05/20 10:34:25;;;;;;;5.28;2.60;;;30.80;92.20;;;;;;7393615;19;20156;-74
2022/05/20 10:37:00;;;;;;;4.25;2.38;;;30.90;91.70;;;;;;7391366;19;20146;-75
2022/05/20 10:39:35;;;;;;;5.45;2.35;;;31.20;90.90;;;;;;7394379;19;20632;-75
2022/05/20 10:42:17;;;;;;;2.70;2.00;;;31.20;90.80;;;;;;7391707;19;20159;-74
2022/05/20 10:50:36;;;;;;;4.18;2.38;;;31.70;86.10;;;;;;7393185;19;20189;-74
2022/05/20 10:53:16;;;;;;;3.13;1.90;;;31.60;87.10;;;;;;7393705;19;20190;-77
2022/05/20 10:56:01;;;;;;;3.70;2.10;;;31.50;86.00;;;;;;7391418;19;20142;-74
2022/05/20 10:58:51;;;;;;;2.85;2.05;;;31.30;86.60;;;;;;7392713;19;20142;-73
2022/05/20 11:01:31;;;;;;;4.88;2.05;;;31.30;87.30;;;;;;7393370;19;20138;-73
2022/05/20 11:04:26;;;;;;;6.68;2.30;;;31.30;86.10;;;;;;7390757;19;20135;-72
2022/05/20 11:07:13;;;;;;;3.35;1.90;;;31.40;85.90;;;;;;7397466;19;20152;-74
2022/05/20 11:09:45;;;;;;;3.13;2.25;;;31.30;84.90;;;;;;7391852;19;20461;-74
2022/05/20 11:12:25;;;;;;;3.80;2.30;;;31.40;83.60;;;;;;7395969;19;20206;-76
2022/05/20 11:15:06;;;;;;;3.38;2.40;;;31.50;83.60;;;;;;7392938;19;20142;-73
2022/05/20 11:17:57;;;;;;;7.10;2.38;;;31.60;84.60;;;;;;7393900;19;20150;-76
2022/05/20 11:20:43;;;;;;;4.40;2.40;;;31.50;83.50;;;;;;7392113;19;20150;-73
2022/05/20 11:23:14;;;;;;;5.30;2.30;;;31.50;84.50;;;;;;7389349;19;20165;-73
2022/05/20 11:25:57;;;;;;;4.50;2.35;;;31.50;86.10;;;;;;7392401;19;20119;-77
2022/05/20 11:28:56;;;;;;;4.53;2.65;;;31.30;84.40;;;;;;7392232;19;20477;-74
2022/05/20 11:31:45;;;;;;;6.18;3.55;;;31.30;84.90;;;;;;7396258;19;20142;-75
2022/05/20 11:34:24;;;;;;;3.28;2.50;;;31.50;84.20;;;;;;7392024;19;20146;-75
2022/05/20 11:36:55;;;;;;;3.20;2.20;;;31.40;83.10;;;;;;7389270;19;20131;-74
2022/05/20 11:39:45;;;;;;;2.80;2.00;;;31.40;82.20;;;;;;7391737;19;20127;-74
2022/05/20 11:42:29;;;;;;;3.28;2.30;;;31.50;80.30;;;;;;7391255;19;20134;-74
2022/05/20 11:45:10;;;;;;;2.45;1.88;;;31.50;82.30;;;;;;7391528;19;20131;-74
2022/05/20 11:47:57;;;;;;;5.43;3.13;;;31.70;82.60;;;;;;7389618;19;20186;-75
2022/05/20 11:50:50;;;;;;;3.38;2.65;;;31.70;82.40;;;;;;7389578;19;20213;-75
2022/05/20 11:53:24;;;;;;;3.80;2.65;;;31.70;83.10;;;;;;7389364;19;20155;-75
2022/05/20 11:56:08;;;;;;;2.97;2.13;;;31.70;82.90;;;;;;7391777;19;20166;-75
2022/05/20 11:58:45;;;;;;;6.88;2.25;;;31.50;83.10;;;;;;7391165;19;20197;-75
2022/05/20 12:01:12;;;;;;;2.97;1.88;;;31.50;83.60;;;;;;7389450;19;20142;-76
2022/05/20 12:06:27;;;;;;;4.53;2.47;;;31.70;83.10;;;;;;7389329;19;20474;-76
2022/05/20 12:08:55;;;;;;;6.03;2.28;;;31.70;84.60;;;;;;7390393;19;20210;-74
2022/05/20 12:11:33;;;;;;;3.45;2.28;;;31.70;83.10;;;;;;7391902;19;20127;-72
2022/05/20 12:14:04;;;;;;;6.78;1.90;;;31.70;83.00;;;;;;7392295;19;20133;-73
2022/05/20 12:16:31;;;;;;;4.57;2.17;;;31.70;81.90;;;;;;7393803;19;20145;-76
2022/05/20 12:24:47;;;;;;;3.58;2.35;;;31.60;82.20;;;;;;7390828;19;20481;-76
2022/05/20 12:27:25;;;;;;;2.53;1.70;;;31.70;82.50;;;;;;7387824;19;20464;-76
2022/05/20 12:30:09;;;;;;;2.00;1.80;;;31.70;81.80;;;;;;7388293;19;20122;-76
2022/05/20 12:32:35;;;;;;;4.80;2.17;;;31.60;81.70;;;;;;7388416;19;20126;-74
2022/05/20 12:35:06;;;;;;;3.55;2.33;;;31.60;81.80;;;;;;7389040;19;20178;-76
2022/05/20 12:37:53;;;;;;;3.92;2.28;;;31.70;82.10;;;;;;7389210;19;20151;-76
2022/05/20 12:40:28;;;;;;;3.42;2.20;;;31.70;81.90;;;;;;7390249;19;20250;-74
2022/05/20 12:43:14;;;;;;;2.75;1.90;;;31.60;81.60;;;;;;7386953;19;20162;-73
2022/05/20 12:45:53;;;;;;;2.67;2.03;;;31.40;80.40;;;;;;7388211;19;20146;-73
2022/05/20 12:48:24;;;;;;;3.40;2.15;;;31.50;81.70;;;;;;7389777;19;20122;-76
2022/05/20 12:51:07;;;;;;;2.67;2.17;;;31.50;80.30;;;;;;7390128;19;20127;-75
2022/05/20 12:53:35;;;;;;;4.55;2.13;;;31.70;81.10;;;;;;7387865;19;20593;-74
2022/05/20 12:56:00;;;;;;;3.58;2.10;;;31.70;78.50;;;;;;7392705;19;20154;-73
2022/05/20 12:58:32;;;;;;;2.42;1.85;;;31.70;78.20;;;;;;7395647;19;20138;-74
2022/05/20 13:01:03;;;;;;;3.55;1.88;;;31.70;77.50;;;;;;7391647;19;20221;-79
2022/05/20 13:03:45;;;;;;;3.38;1.75;;;31.80;76.60;;;;;;7386304;19;20137;-73
2022/05/20 13:06:23;;;;;;;2.75;1.88;;;31.90;77.30;;;;;;7389849;19;20154;-74
2022/05/20 13:08:57;;;;;;;3.17;1.80;;;31.80;76.50;;;;;;7389181;19;20152;-74
2022/05/20 13:11:24;;;;;;;5.82;2.10;;;31.80;76.50;;;;;;7391238;19;20166;-74
2022/05/20 13:13:53;;;;;;;3.72;2.08;;;31.80;76.60;;;;;;7389881;19;20147;-79
2022/05/20 13:16:21;;;;;;;2.83;1.80;;;31.70;77.20;;;;;;7390391;19;20140;-78
2022/05/20 13:19:08;;;;;;;3.03;2.08;;;31.80;76.60;;;;;;7388876;19;20147;-73
2022/05/20 13:21:50;;;;;;;2.88;1.98;;;32.00;75.30;;;;;;7392963;19;20155;-73
2022/05/20 13:24:27;;;;;;;3.67;1.98;;;32.00;74.60;;;;;;7384969;19;20151;-75
2022/05/20 13:27:09;;;;;;;4.25;2.20;;;32.00;74.60;;;;;;7387118;19;20134;-79
2022/05/20 13:29:35;;;;;;;2.17;1.63;;;32.00;73.70;;;;;;7387487;19;20131;-76
2022/05/20 13:32:15;;;;;;;1.90;1.45;;;32.00;73.50;;;;;;7387553;19;20143;-79
2022/05/20 13:34:43;;;;;;;4.18;1.65;;;32.10;73.70;;;;;;7388845;19;20139;-72
2022/05/20 13:37:12;;;;;;;4.13;1.95;;;32.10;72.70;;;;;;7390451;19;20138;-73
2022/05/20 13:39:38;;;;;;;2.75;1.75;;;32.10;72.30;;;;;;7388780;19;20153;-76
2022/05/20 13:42:11;;;;;;;4.63;1.75;;;32.00;73.30;;;;;;7388231;19;20143;-74
2022/05/20 13:44:40;;;;;;;2.92;1.73;;;32.10;72.40;;;;;;7391157;19;20149;-74
2022/05/20 13:49:52;;;;;;;3.80;1.60;;;32.20;73.00;;;;;;7388973;19;20135;-76
2022/05/20 13:52:18;;;;;;;2.35;1.60;;;31.90;71.80;;;;;;7386863;19;20144;-78
2022/05/20 13:54:50;;;;;;;4.07;1.63;;;32.00;73.20;;;;;;7386822;19;20134;-78
2022/05/20 13:57:30;;;;;;;3.72;2.05;;;31.90;72.40;;;;;;7388156;19;20206;-75
2022/05/20 13:59:59;;;;;;;1.88;1.60;;;31.90;73.00;;;;;;7387352;19;20146;-74
2022/05/20 14:02:39;;;;;;;4.45;2.80;;;31.80;73.20;;;;;;7385110;19;20160;-77